createdAt,value
2022-10-26T00:00:28.548Z,17.50
2022-10-26T00:02:58.253Z,17.53
2022-10-26T00:05:28.726Z,19.20
2022-10-26T00:07:57.874Z,19.20
2022-10-26T00:10:28.317Z,19.60
2022-10-26T00:13:00.043Z,20.27
2022-10-26T00:15:29.487Z,17.83
2022-10-26T00:17:58.643Z,17.90
2022-10-26T00:20:29.244Z,17.17
2022-10-26T00:22:58.428Z,19.43
2022-10-26T00:25:27.446Z,17.43
2022-10-26T00:27:56.524Z,16.63
2022-10-26T00:30:25.646Z,17.83
2022-10-26T00:32:54.716Z,18.67
2022-10-26T00:35:41.140Z,18.20
2022-10-26T00:38:14.418Z,18.53
2022-10-26T00:40:44.518Z,19.83
2022-10-26T00:43:18.283Z,20.00
2022-10-26T00:45:48.767Z,19.57
2022-10-26T00:48:24.534Z,19.47
2022-10-26T00:50:55.701Z,18.40
2022-10-26T00:53:26.441Z,19.17
2022-10-26T00:55:56.292Z,19.80
2022-10-26T00:58:27.560Z,19.70
2022-10-26T01:00:57.040Z,20.33
2022-10-26T01:03:26.456Z,19.17
2022-10-26T01:05:59.003Z,19.97
2022-10-26T01:08:30.234Z,20.77
2022-10-26T01:11:01.229Z,22.90
2022-10-26T01:13:36.042Z,19.37
2022-10-26T01:16:19.565Z,21.47
2022-10-26T01:19:00.359Z,20.10
2022-10-26T01:21:47.340Z,19.93
2022-10-26T01:24:52.540Z,20.40
2022-10-26T01:27:28.592Z,19.30
2022-10-26T01:30:25.415Z,20.10
2022-10-26T01:33:12.070Z,19.50
2022-10-26T01:35:48.932Z,19.63
2022-10-26T01:38:24.499Z,19.77
2022-10-26T01:41:00.425Z,19.70
2022-10-26T01:43:34.296Z,19.53
2022-10-26T01:46:07.714Z,19.80
2022-10-26T01:48:37.978Z,19.40
2022-10-26T01:51:09.623Z,20.47
2022-10-26T01:53:43.467Z,20.10
2022-10-26T01:56:19.469Z,19.67
2022-10-26T01:59:27.277Z,19.37
2022-10-26T02:02:24.319Z,19.00
2022-10-26T02:05:12.198Z,19.17
2022-10-26T02:07:51.201Z,19.13
2022-10-26T02:10:32.166Z,20.37
2022-10-26T02:13:09.342Z,19.77
2022-10-26T02:15:48.790Z,20.33
2022-10-26T02:18:30.438Z,22.27
2022-10-26T02:21:06.915Z,23.50
2022-10-26T02:23:39.217Z,23.70
2022-10-26T02:26:11.002Z,24.93
2022-10-26T02:28:45.814Z,24.83
2022-10-26T02:31:16.510Z,25.33
2022-10-26T02:33:50.635Z,24.67
2022-10-26T02:36:24.312Z,23.80
2022-10-26T02:38:55.628Z,26.10
2022-10-26T02:41:27.380Z,24.60
2022-10-26T02:44:01.998Z,22.47
2022-10-26T02:46:31.337Z,22.53
2022-10-26T02:49:03.063Z,22.93
2022-10-26T02:51:38.978Z,22.40
2022-10-26T02:54:15.579Z,23.60
2022-10-26T02:56:50.648Z,23.87
2022-10-26T02:59:22.923Z,23.13
2022-10-26T03:01:53.439Z,21.13
2022-10-26T03:04:30.865Z,21.73
2022-10-26T03:07:00.205Z,20.73
2022-10-26T03:09:29.690Z,20.80
2022-10-26T03:11:58.846Z,21.17
2022-10-26T03:14:27.873Z,20.67
2022-10-26T03:16:57.125Z,20.17
2022-10-26T03:19:27.561Z,22.13
2022-10-26T03:21:56.664Z,27.07
2022-10-26T03:24:25.768Z,21.10
2022-10-26T03:26:57.116Z,21.33
2022-10-26T03:29:28.723Z,22.67
2022-10-26T03:31:57.914Z,24.57
2022-10-26T03:34:28.451Z,22.90
2022-10-26T03:36:57.512Z,23.57
2022-10-26T03:39:26.492Z,24.00
2022-10-26T03:41:56.859Z,22.93
2022-10-26T03:44:25.915Z,22.87
2022-10-26T03:46:54.921Z,22.97
2022-10-26T03:49:24.110Z,23.63
2022-10-26T03:51:54.646Z,23.77
2022-10-26T03:54:23.721Z,23.40
2022-10-26T03:56:55.233Z,23.80
2022-10-26T03:59:24.646Z,24.30
2022-10-26T04:01:56.793Z,25.23
2022-10-26T04:04:27.063Z,22.53
2022-10-26T04:06:57.566Z,23.20
2022-10-26T04:09:26.734Z,27.43
2022-10-26T04:11:55.750Z,23.77
2022-10-26T04:14:24.905Z,23.97
2022-10-26T04:16:54.059Z,24.87
2022-10-26T04:19:23.492Z,23.40
2022-10-26T04:21:53.114Z,29.07
2022-10-26T04:24:23.556Z,26.70
2022-10-26T04:26:52.642Z,26.40
2022-10-26T04:29:21.785Z,23.67
2022-10-26T04:31:50.867Z,24.60
2022-10-26T04:34:19.924Z,25.43
2022-10-26T04:36:49.074Z,24.27
2022-10-26T04:39:18.185Z,23.80
2022-10-26T04:41:48.634Z,22.07
2022-10-26T04:44:17.809Z,24.50
2022-10-26T04:46:46.966Z,24.00
2022-10-26T04:49:17.472Z,24.13
2022-10-26T04:51:46.631Z,23.87
2022-10-26T04:54:15.821Z,24.23
2022-10-26T04:59:20.960Z,24.30
2022-10-26T05:01:50.117Z,27.13
2022-10-26T05:04:19.270Z,22.83
2022-10-26T05:06:48.261Z,22.17
2022-10-26T05:09:17.500Z,23.07
2022-10-26T05:11:46.771Z,25.73
2022-10-26T05:14:16.072Z,23.37
2022-10-26T05:16:46.863Z,24.63
2022-10-26T05:19:16.142Z,23.37
2022-10-26T05:24:19.742Z,24.83
2022-10-26T05:26:48.941Z,24.37
2022-10-26T05:29:18.142Z,24.73
2022-10-26T05:31:48.739Z,26.23
2022-10-26T05:34:17.912Z,24.57
2022-10-26T05:36:47.312Z,24.13
2022-10-26T05:39:16.512Z,23.83
2022-10-26T05:41:45.672Z,29.20
2022-10-26T05:44:14.861Z,20.90
2022-10-26T05:46:44.071Z,22.07
2022-10-26T05:49:16.091Z,21.40
2022-10-26T05:51:45.531Z,25.57
2022-10-26T05:54:14.891Z,20.63
2022-10-26T05:56:44.742Z,21.73
2022-10-26T05:59:16.102Z,24.77
2022-10-26T06:02:04.637Z,21.03
2022-10-26T06:04:39.463Z,18.80
2022-10-26T06:07:14.421Z,21.23
2022-10-26T06:09:44.768Z,17.43
2022-10-26T06:12:19.248Z,20.47
2022-10-26T06:14:50.435Z,17.30
2022-10-26T06:17:37.407Z,17.77
2022-10-26T06:20:38.366Z,17.10
2022-10-26T06:23:20.676Z,20.37
2022-10-26T06:26:03.009Z,19.53
2022-10-26T06:28:41.120Z,19.93
2022-10-26T06:31:11.349Z,21.13
2022-10-26T06:33:41.119Z,17.20
2022-10-26T06:36:23.585Z,21.20
2022-10-26T06:38:58.238Z,20.00
2022-10-26T06:41:28.747Z,21.07
2022-10-26T06:43:59.116Z,16.93
2022-10-26T06:46:37.956Z,19.03
2022-10-26T06:49:16.626Z,17.27
2022-10-26T06:51:56.085Z,16.77
2022-10-26T06:54:32.317Z,18.17
2022-10-26T06:57:03.825Z,16.07
2022-10-26T06:59:41.477Z,15.67
2022-10-26T07:02:11.836Z,17.20
2022-10-26T07:04:41.179Z,17.80
2022-10-26T07:07:15.486Z,26.17
2022-10-26T07:09:44.753Z,20.50
2022-10-26T07:12:14.048Z,19.37
2022-10-26T07:14:43.417Z,20.00
2022-10-26T07:17:12.927Z,20.40
2022-10-26T07:19:45.049Z,15.10
2022-10-26T07:22:15.890Z,18.47
2022-10-26T07:24:45.425Z,16.73
2022-10-26T07:27:14.768Z,17.73
2022-10-26T07:29:44.122Z,17.77
2022-10-26T07:32:13.612Z,27.63
2022-10-26T07:34:42.901Z,19.17
2022-10-26T07:37:12.612Z,29.70
2022-10-26T07:39:43.854Z,23.50
2022-10-26T07:42:13.221Z,19.57
2022-10-26T07:44:42.924Z,18.97
2022-10-26T07:47:12.771Z,19.20
2022-10-26T07:49:42.334Z,20.00
2022-10-26T07:52:11.934Z,16.77
2022-10-26T07:54:42.522Z,19.00
2022-10-26T07:57:11.693Z,18.27
2022-10-26T07:59:40.994Z,18.83
2022-10-26T08:02:11.662Z,22.97
2022-10-26T08:04:41.061Z,21.67
2022-10-26T08:07:10.334Z,23.63
2022-10-26T08:09:39.703Z,18.17
2022-10-26T08:12:10.574Z,23.37
2022-10-26T08:14:39.863Z,24.43
2022-10-26T08:17:09.053Z,17.80
2022-10-26T08:19:39.067Z,46.47
2022-10-26T08:22:08.708Z,17.87
2022-10-26T08:24:38.263Z,18.70
2022-10-26T08:27:08.195Z,19.80
2022-10-26T08:29:39.237Z,17.37
2022-10-26T08:32:08.705Z,14.60
2022-10-26T08:34:37.999Z,17.93
2022-10-26T08:37:07.314Z,14.77
2022-10-26T08:39:36.620Z,16.43
2022-10-26T08:42:12.302Z,19.37
2022-10-26T08:44:47.275Z,15.70
2022-10-26T08:47:21.599Z,16.97
2022-10-26T08:49:55.912Z,18.07
2022-10-26T08:52:30.976Z,17.40
2022-10-26T08:55:01.921Z,19.73
2022-10-26T08:57:38.812Z,20.10
2022-10-26T09:00:15.667Z,25.57
2022-10-26T09:02:45.254Z,21.77
2022-10-26T09:05:19.005Z,22.93
2022-10-26T09:07:59.649Z,22.73
2022-10-26T09:10:41.175Z,17.70
2022-10-26T09:13:25.560Z,16.97
2022-10-26T09:16:04.283Z,17.37
2022-10-26T09:18:42.479Z,20.27
2022-10-26T09:21:24.611Z,19.53
2022-10-26T09:24:00.504Z,18.03
2022-10-26T09:26:39.388Z,20.83
2022-10-26T09:29:13.467Z,17.00
2022-10-26T09:31:46.767Z,25.50
2022-10-26T09:34:26.522Z,21.57
2022-10-26T09:36:57.642Z,17.03
2022-10-26T09:39:37.542Z,17.33
2022-10-26T09:42:16.250Z,22.93
2022-10-26T09:44:52.256Z,18.30
2022-10-26T09:47:33.237Z,18.10
2022-10-26T09:50:17.043Z,18.10
2022-10-26T09:52:46.777Z,19.23
2022-10-26T09:55:16.568Z,23.27
2022-10-26T09:57:48.407Z,14.40
2022-10-26T10:00:20.011Z,14.73
2022-10-26T10:02:53.849Z,15.60
2022-10-26T10:05:50.409Z,12.43
2022-10-26T10:08:23.026Z,13.40
2022-10-26T10:11:01.796Z,17.47
2022-10-26T10:13:34.016Z,13.90
2022-10-26T10:16:12.006Z,18.73
2022-10-26T10:18:43.758Z,13.47
2022-10-26T10:21:14.562Z,12.23
2022-10-26T10:23:52.500Z,12.63
2022-10-26T10:26:22.161Z,12.50
2022-10-26T10:28:59.906Z,14.83
2022-10-26T10:31:31.446Z,13.07
2022-10-26T10:34:16.533Z,12.17
2022-10-26T10:36:45.933Z,14.73
2022-10-26T10:39:38.042Z,16.03
2022-10-26T10:42:15.895Z,13.93
2022-10-26T10:44:47.094Z,14.87
2022-10-26T10:47:25.694Z,12.80
2022-10-26T10:50:00.852Z,15.07
2022-10-26T10:52:33.229Z,15.97
2022-10-26T10:55:17.339Z,15.67
2022-10-26T10:58:09.869Z,16.80
2022-10-26T11:00:40.111Z,11.33
2022-10-26T11:03:34.379Z,12.63
2022-10-26T11:06:12.679Z,13.93
2022-10-26T11:08:48.210Z,16.23
2022-10-26T11:11:22.189Z,16.13
2022-10-26T11:13:56.981Z,16.37
2022-10-26T11:16:31.869Z,13.03
2022-10-26T11:19:04.620Z,12.33
2022-10-26T11:21:39.205Z,12.57
2022-10-26T11:24:16.317Z,12.90
2022-10-26T11:26:52.985Z,12.97
2022-10-26T11:29:33.822Z,11.33
2022-10-26T11:32:13.808Z,15.83
2022-10-26T11:34:49.758Z,11.53
2022-10-26T11:37:27.488Z,15.53
2022-10-26T11:40:05.458Z,14.33
2022-10-26T11:42:42.747Z,13.00
2022-10-26T11:45:19.557Z,13.47
2022-10-26T11:47:54.316Z,16.27
2022-10-26T11:50:27.130Z,13.60
2022-10-26T11:53:02.580Z,13.90
2022-10-26T11:55:32.482Z,14.90
2022-10-26T11:58:03.213Z,12.90
2022-10-26T12:00:34.744Z,15.70
2022-10-26T12:03:10.035Z,14.77
2022-10-26T12:05:48.741Z,13.27
2022-10-26T12:08:26.011Z,11.87
2022-10-26T12:13:42.212Z,12.50
2022-10-26T12:16:22.305Z,12.63
2022-10-26T12:18:57.031Z,12.23
2022-10-26T12:21:29.946Z,11.80
2022-10-26T12:24:02.382Z,12.40
2022-10-26T12:26:53.462Z,16.00
2022-10-26T12:29:33.009Z,16.80
2022-10-26T12:32:02.845Z,14.20
2022-10-26T12:35:04.171Z,16.03
2022-10-26T12:37:38.357Z,14.63
2022-10-26T12:40:42.173Z,15.13
2022-10-26T12:43:37.280Z,13.17
2022-10-26T12:46:43.015Z,13.93
2022-10-26T12:50:00.743Z,12.37
2022-10-26T12:52:50.065Z,11.95
2022-10-26T12:56:04.446Z,12.03
2022-10-26T12:59:14.962Z,14.60
2022-10-26T13:02:10.123Z,14.67
2022-10-26T13:05:21.322Z,11.67
2022-10-26T13:07:51.873Z,12.87
2022-10-26T13:10:25.251Z,13.27
2022-10-26T13:12:58.281Z,12.83
2022-10-26T13:15:30.852Z,12.90
2022-10-26T13:18:10.198Z,15.60
2022-10-26T13:20:55.734Z,14.90
2022-10-26T13:23:29.152Z,14.20
2022-10-26T13:26:09.762Z,15.07
2022-10-26T13:28:52.351Z,11.47
2022-10-26T13:31:59.576Z,12.13
2022-10-26T13:34:32.501Z,13.60
2022-10-26T13:37:20.679Z,12.57
2022-10-26T13:39:56.265Z,11.27
2022-10-26T13:42:29.011Z,11.87
2022-10-26T13:45:07.023Z,16.27
2022-10-26T13:47:45.246Z,15.93
2022-10-26T13:50:18.893Z,13.07
2022-10-26T13:52:52.853Z,14.33
2022-10-26T13:55:26.763Z,16.20
2022-10-26T13:58:20.782Z,15.67
2022-10-26T14:01:06.861Z,11.83
2022-10-26T14:03:36.841Z,11.47
2022-10-26T14:06:08.611Z,14.83
2022-10-26T14:08:38.272Z,12.30
2022-10-26T14:11:07.941Z,13.77
2022-10-26T14:13:42.372Z,10.80
2022-10-26T14:16:18.195Z,17.30
2022-10-26T14:18:48.684Z,12.47
2022-10-26T14:21:21.531Z,10.60
2022-10-26T14:23:53.461Z,12.57
2022-10-26T14:26:24.023Z,14.30
2022-10-26T14:28:56.136Z,11.83
2022-10-26T14:31:30.373Z,12.27
2022-10-26T14:34:01.857Z,11.67
2022-10-26T14:36:36.775Z,12.40
2022-10-26T14:39:09.191Z,11.57
2022-10-26T14:44:20.100Z,11.70
2022-10-26T14:46:51.402Z,14.50
2022-10-26T14:49:23.178Z,15.40
2022-10-26T14:51:58.913Z,11.70
2022-10-26T14:54:30.460Z,11.07
2022-10-26T14:57:02.929Z,11.47
2022-10-26T14:59:33.629Z,13.33
2022-10-26T15:02:17.118Z,12.17
2022-10-26T15:05:00.374Z,15.33
2022-10-26T15:07:38.440Z,11.10
2022-10-26T15:10:08.261Z,16.07
2022-10-26T15:12:38.830Z,11.97
2022-10-26T15:17:55.461Z,12.00
2022-10-26T15:20:26.603Z,11.67
2022-10-26T15:22:58.859Z,11.47
2022-10-26T15:25:30.281Z,13.77
2022-10-26T15:28:11.469Z,16.27
2022-10-26T15:30:41.008Z,11.17
2022-10-26T15:33:23.111Z,12.07
2022-10-26T15:35:52.990Z,13.13
2022-10-26T15:38:22.590Z,11.83
2022-10-26T15:40:52.841Z,11.67
2022-10-26T15:43:22.947Z,13.23
2022-10-26T15:45:53.200Z,11.63
2022-10-26T15:48:29.640Z,10.17
2022-10-26T15:50:59.550Z,10.27
2022-10-26T15:53:30.999Z,11.97
2022-10-26T15:56:06.160Z,13.13
2022-10-26T16:02:16.479Z,11.17
2022-10-26T16:04:59.601Z,12.37
2022-10-26T16:07:31.130Z,11.03
2022-10-26T16:10:02.809Z,10.23
2022-10-26T16:12:32.312Z,12.80
2022-10-26T16:15:06.208Z,14.27
2022-10-26T16:17:35.950Z,13.43
2022-10-26T16:20:09.188Z,14.33
2022-10-26T16:22:40.990Z,18.00
2022-10-26T16:25:10.643Z,13.10
2022-10-26T16:27:40.039Z,12.90
2022-10-26T16:30:10.290Z,12.83
2022-10-26T16:32:39.731Z,20.53
2022-10-26T16:35:14.773Z,12.90
2022-10-26T16:37:43.974Z,14.70
2022-10-26T16:40:13.921Z,11.53
2022-10-26T16:42:45.190Z,16.40
2022-10-26T16:45:15.699Z,12.47
2022-10-26T16:47:45.040Z,13.93
2022-10-26T16:50:16.031Z,14.00
2022-10-26T16:52:45.809Z,22.67
2022-10-26T16:55:15.073Z,17.73
2022-10-26T16:57:44.350Z,14.87
2022-10-26T17:00:15.062Z,18.33
2022-10-26T17:02:44.611Z,20.17
2022-10-26T17:05:15.870Z,15.20
2022-10-26T17:07:45.720Z,20.40
2022-10-26T17:10:15.233Z,18.43
2022-10-26T17:12:44.574Z,14.00
2022-10-26T17:15:17.268Z,16.77
2022-10-26T17:17:49.399Z,17.40
2022-10-26T17:20:20.260Z,18.33
2022-10-26T17:22:52.763Z,17.33
2022-10-26T17:25:22.601Z,14.87
2022-10-26T17:27:52.388Z,20.17
2022-10-26T17:30:22.178Z,17.17
2022-10-26T17:32:52.756Z,21.57
2022-10-26T17:35:24.370Z,26.03
2022-10-26T17:37:54.405Z,23.90
2022-10-26T17:40:25.226Z,29.63
2022-10-26T17:42:54.999Z,29.77
2022-10-26T17:52:00.064Z,26.97
2022-10-26T17:54:31.109Z,21.37
2022-10-26T17:57:03.533Z,20.87
2022-10-26T17:59:35.833Z,24.27
2022-10-26T18:02:07.210Z,30.10
2022-10-26T18:04:39.939Z,28.50
2022-10-26T18:07:12.262Z,30.57
2022-10-26T18:09:43.762Z,24.80
2022-10-26T18:12:13.832Z,25.13
2022-10-26T18:14:47.461Z,25.63
2022-10-26T18:17:23.819Z,32.50
2022-10-26T18:19:53.767Z,24.57
2022-10-26T18:22:25.872Z,30.57
2022-10-26T18:24:55.628Z,27.40
2022-10-26T18:27:25.796Z,24.07
2022-10-26T18:29:58.783Z,23.13
2022-10-26T18:32:29.543Z,54.20
2022-10-26T18:35:05.194Z,39.33
2022-10-26T18:37:38.408Z,29.73
2022-10-26T18:40:10.959Z,31.07
2022-10-26T18:42:42.378Z,28.20
2022-10-26T18:45:12.661Z,24.70
2022-10-26T18:47:42.581Z,26.13
2022-10-26T18:50:12.465Z,29.43
2022-10-26T18:52:43.960Z,24.37
2022-10-26T18:55:14.550Z,23.90
2022-10-26T18:57:44.775Z,26.40
2022-10-26T19:00:16.290Z,22.33
2022-10-26T19:02:48.685Z,28.70
2022-10-26T19:05:21.652Z,25.83
2022-10-26T19:07:53.119Z,33.83
2022-10-26T19:10:23.249Z,33.13
2022-10-26T19:12:53.774Z,27.90
2022-10-26T19:15:30.851Z,33.03
2022-10-26T19:18:03.250Z,24.50
2022-10-26T19:20:34.258Z,26.30
2022-10-26T19:23:10.804Z,34.97
2022-10-26T19:25:41.007Z,29.23
2022-10-26T19:28:10.856Z,31.73
2022-10-26T19:30:40.806Z,30.13
2022-10-26T19:33:10.994Z,34.07
2022-10-26T19:35:41.019Z,26.30
2022-10-26T19:38:12.533Z,29.73
2022-10-26T19:40:42.547Z,28.10
2022-10-26T19:43:13.321Z,27.33
2022-10-26T19:45:45.815Z,20.50
2022-10-26T19:48:17.917Z,27.60
2022-10-26T19:50:50.949Z,21.60
2022-10-26T19:53:22.895Z,31.93
2022-10-26T19:55:58.061Z,25.63
2022-10-26T19:58:29.725Z,32.37
2022-10-26T20:01:02.158Z,32.10
2022-10-26T20:03:34.105Z,26.80
2022-10-26T20:06:08.826Z,29.77
2022-10-26T20:08:40.946Z,31.43
2022-10-26T20:11:15.513Z,27.97
2022-10-26T20:13:47.975Z,35.37
2022-10-26T20:16:19.689Z,37.80
2022-10-26T20:18:49.350Z,29.53
2022-10-26T20:21:20.512Z,29.43
2022-10-26T20:23:51.838Z,35.13
2022-10-26T20:26:25.215Z,28.97
2022-10-26T20:28:57.636Z,32.27
2022-10-26T20:31:27.537Z,30.23
2022-10-26T20:33:58.145Z,38.60
2022-10-26T20:36:28.570Z,38.97
2022-10-26T20:39:01.009Z,28.40
2022-10-26T20:41:31.630Z,35.23
2022-10-26T20:44:02.859Z,30.03
2022-10-26T20:46:33.313Z,31.10
2022-10-26T20:49:03.666Z,32.20
2022-10-26T20:51:51.907Z,34.67
2022-10-26T20:54:39.256Z,35.20
2022-10-26T20:57:14.663Z,32.20
2022-10-26T20:59:49.701Z,34.37
2022-10-26T21:02:19.675Z,37.47
2022-10-26T21:04:49.071Z,37.00
2022-10-26T21:07:18.737Z,32.97
2022-10-26T21:09:50.357Z,28.30
2022-10-26T21:12:19.718Z,32.60
2022-10-26T21:14:49.670Z,35.07
2022-10-26T21:17:19.183Z,32.47
2022-10-26T21:19:48.765Z,33.43
2022-10-26T21:22:18.319Z,27.50
2022-10-26T21:24:48.904Z,28.73
2022-10-26T21:27:18.116Z,31.27
2022-10-26T21:29:47.351Z,33.07
2022-10-26T21:32:16.656Z,34.17
2022-10-26T21:34:45.881Z,29.90
2022-10-26T21:37:15.012Z,29.13
2022-10-26T21:39:44.207Z,29.93
2022-10-26T21:42:14.610Z,25.10
2022-10-26T21:44:43.693Z,28.00
2022-10-26T21:47:13.244Z,31.10
2022-10-26T21:52:16.473Z,28.97
2022-10-26T21:54:45.574Z,26.13
2022-10-26T21:57:17.654Z,27.77
2022-10-26T21:59:46.911Z,27.43
2022-10-26T22:02:16.178Z,31.73
2022-10-26T22:04:45.252Z,30.67
2022-10-26T22:07:14.322Z,30.77
2022-10-26T22:10:00.402Z,29.90
2022-10-26T22:12:36.035Z,30.37
2022-10-26T22:15:05.783Z,29.50
2022-10-26T22:17:38.836Z,32.83
2022-10-26T22:20:09.643Z,31.80
2022-10-26T22:22:39.003Z,34.43
2022-10-26T22:25:08.649Z,29.73
2022-10-26T22:27:39.280Z,30.93
2022-10-26T22:30:09.875Z,32.77
2022-10-26T22:32:39.022Z,37.93
2022-10-26T22:35:28.446Z,32.60
2022-10-26T22:37:57.801Z,32.40
2022-10-26T22:40:27.002Z,36.80
2022-10-26T22:42:57.484Z,33.23
2022-10-26T22:45:26.534Z,36.27
2022-10-26T22:47:55.654Z,31.63
2022-10-26T22:50:25.677Z,30.23
2022-10-26T22:52:54.817Z,33.53
2022-10-26T22:55:23.852Z,33.53
2022-10-26T22:57:53.156Z,32.23
2022-10-26T23:00:23.984Z,30.47
2022-10-26T23:02:52.967Z,29.83
2022-10-26T23:05:22.065Z,34.13
2022-10-26T23:07:51.340Z,29.40
2022-10-26T23:10:20.713Z,30.53
2022-10-26T23:12:51.484Z,30.53
2022-10-26T23:15:20.573Z,29.27
2022-10-26T23:17:51.303Z,30.70
2022-10-26T23:20:20.571Z,29.33
2022-10-26T23:22:49.983Z,30.67
2022-10-26T23:25:19.179Z,29.97
2022-10-26T23:27:48.263Z,28.87
2022-10-26T23:30:17.318Z,30.03
2022-10-26T23:32:46.412Z,30.27
2022-10-26T23:35:17.096Z,29.03
2022-10-26T23:37:46.156Z,30.17
2022-10-26T23:40:15.260Z,28.23
2022-10-26T23:42:44.315Z,28.60
2022-10-26T23:45:13.332Z,29.23
2022-10-26T23:47:42.552Z,32.00
2022-10-26T23:50:12.007Z,32.43
2022-10-26T23:52:42.532Z,33.63
2022-10-26T23:55:11.836Z,34.70
2022-10-26T23:57:41.391Z,31.10
